Time;durP1;ratioP1;P1;durP2;ratioP2;P2;SDS_P1;SDS_P2;PMS_P1;PMS_P2;Temp;Humidity;BMP_temperature;BMP_pressure;BME280_temperature;BME280_humidity;BME280_pressure;Samples;Min_cycle;Max_cycle;Signal;HPM_P1;HPM_P2
2023/04/24 00:00:09;;;;;;;2.33;0.68;;;10.00;99.90;;;9.51;100.00;96214.41;5032319;28;20040;-39
2023/04/24 00:02:38;;;;;;;2.92;0.68;;;10.00;99.90;;;9.59;100.00;96222.75;5026840;28;20511;-41
2023/04/24 00:05:05;;;;;;;2.72;0.70;;;10.10;99.90;;;9.66;100.00;96223.31;5018232;28;20043;-40
2023/04/24 00:07:32;;;;;;;1.10;0.73;;;10.10;99.90;;;9.69;100.00;96216.09;5027935;28;20083;-40
2023/04/24 00:09:57;;;;;;;1.52;0.85;;;10.10;99.90;;;9.73;100.00;96219.41;5027433;28;20152;-39
2023/04/24 00:12:24;;;;;;;3.60;0.60;;;10.20;99.90;;;9.71;100.00;96222.13;5028998;28;20150;-39
2023/04/24 00:14:49;;;;;;;2.38;0.80;;;10.20;99.90;;;9.68;100.00;96229.34;5029257;28;20109;-39
2023/04/24 00:17:15;;;;;;;1.13;0.70;;;10.20;99.90;;;9.78;100.00;96233.19;5034292;28;20111;-39
2023/04/24 00:19:41;;;;;;;1.40;0.60;;;10.20;99.90;;;9.79;100.00;96218.25;5031691;28;20052;-39
2023/04/24 00:22:07;;;;;;;1.17;0.80;;;10.30;99.90;;;9.87;100.00;96226.56;5032401;28;20500;-40
2023/04/24 00:24:33;;;;;;;1.52;0.60;;;10.30;99.90;;;9.96;100.00;96241.03;5031707;28;20387;-40
2023/04/24 00:27:00;;;;;;;0.90;0.70;;;10.40;99.90;;;9.96;100.00;96234.00;5030209;28;20024;-39
2023/04/24 00:29:26;;;;;;;3.58;0.80;;;10.40;99.90;;;9.97;100.00;96242.75;5027187;28;20048;-39
2023/04/24 00:31:52;;;;;;;0.85;0.60;;;10.40;99.90;;;9.97;100.00;96243.59;5024119;28;20037;-39
2023/04/24 00:34:18;;;;;;;1.00;0.57;;;10.40;99.90;;;9.99;100.00;96249.63;5026547;28;20431;-39
2023/04/24 00:36:43;;;;;;;1.30;0.52;;;10.40;99.90;;;9.99;100.00;96247.00;5025044;28;20036;-39
2023/04/24 00:39:09;;;;;;;1.23;0.60;;;10.40;99.90;;;10.05;100.00;96238.78;5034484;28;20032;-39
2023/04/24 00:41:35;;;;;;;0.40;0.40;;;10.50;99.90;;;10.07;100.00;96233.44;5028040;28;20020;-40
2023/04/24 00:44:01;;;;;;;0.90;0.60;;;10.50;99.90;;;10.07;100.00;96236.06;5028283;28;21022;-39
2023/04/24 00:46:26;;;;;;;2.28;0.70;;;10.50;99.90;;;10.04;100.00;96230.97;5024612;28;23823;-41
2023/04/24 00:48:52;;;;;;;2.40;0.60;;;10.50;99.90;;;10.04;100.00;96229.16;5022390;28;20368;-41
2023/04/24 00:51:18;;;;;;;0.93;0.65;;;10.50;99.90;;;10.05;100.00;96232.66;5026929;28;20032;-40
2023/04/24 00:53:44;;;;;;;1.42;0.60;;;10.50;99.90;;;10.06;100.00;96229.94;5030136;28;20108;-41
2023/04/24 00:56:10;;;;;;;2.17;1.08;;;10.50;99.90;;;10.06;100.00;96227.31;5035297;28;20032;-40
2023/04/24 00:58:36;;;;;;;0.93;0.60;;;10.50;99.90;;;10.04;100.00;96200.19;5024362;28;20072;-40
2023/04/24 01:01:02;;;;;;;1.13;0.63;;;10.50;99.90;;;10.12;100.00;96221.72;5022575;28;21021;-39
2023/04/24 01:03:32;;;;;;;1.42;0.63;;;10.60;99.90;;;10.14;100.00;96221.63;5024503;28;20041;-39
2023/04/24 01:05:58;;;;;;;0.88;0.50;;;10.60;99.90;;;10.19;100.00;96219.56;5046299;28;20036;-40
2023/04/24 01:08:26;;;;;;;0.98;0.82;;;10.60;99.90;;;10.18;100.00;96219.69;5029721;28;20303;-40
2023/04/24 01:10:52;;;;;;;0.82;0.70;;;10.60;99.90;;;10.17;100.00;96217.97;5026511;28;20039;-39
2023/04/24 01:13:19;;;;;;;1.77;0.50;;;10.60;99.90;;;10.18;100.00;96217.06;5032379;28;20060;-40
2023/04/24 01:15:46;;;;;;;1.70;0.65;;;10.60;99.90;;;10.23;100.00;96225.53;5025697;28;20032;-40
2023/04/24 01:18:12;;;;;;;2.17;0.65;;;10.70;99.90;;;10.19;100.00;96210.84;5039067;28;20028;-39
2023/04/24 01:20:43;;;;;;;0.50;0.40;;;10.70;99.90;;;10.23;100.00;96207.97;5032175;28;20031;-40
2023/04/24 01:23:10;;;;;;;1.75;0.60;;;10.60;99.90;;;10.19;100.00;96209.03;5037913;28;20059;-40
2023/04/24 01:25:36;;;;;;;0.93;0.43;;;10.60;99.90;;;10.18;100.00;96212.63;5032582;28;20479;-40
2023/04/24 01:28:02;;;;;;;1.95;0.50;;;10.60;99.90;;;10.13;100.00;96206.75;5035951;28;20052;-41
2023/04/24 01:30:30;;;;;;;1.48;0.65;;;10.60;99.90;;;10.07;100.00;96204.47;5035615;28;20033;-40
2023/04/24 01:32:56;;;;;;;1.25;0.60;;;10.50;99.90;;;9.99;100.00;96198.75;5033145;28;20472;-41
2023/04/24 01:35:22;;;;;;;0.50;0.50;;;10.40;99.90;;;9.88;100.00;96200.16;5037543;28;20033;-40
2023/04/24 01:37:48;;;;;;;1.23;0.60;;;10.30;99.90;;;9.84;100.00;96200.44;5029765;28;20040;-41
2023/04/24 01:40:14;;;;;;;0.73;0.60;;;10.20;99.90;;;9.77;100.00;96193.78;5037285;28;20599;-41
2023/04/24 01:42:41;;;;;;;3.42;0.80;;;10.20;99.90;;;9.71;100.00;96193.16;5030902;28;20033;-40
2023/04/24 01:45:11;;;;;;;0.82;0.63;;;10.20;99.90;;;9.71;100.00;96192.31;5035025;28;20044;-39
2023/04/24 01:47:37;;;;;;;1.02;0.70;;;10.10;99.90;;;9.70;100.00;96183.56;5029141;28;20043;-40
2023/04/24 01:50:04;;;;;;;1.10;0.38;;;10.10;99.90;;;9.74;100.00;96179.84;5034574;28;20116;-41
2023/04/24 01:52:32;;;;;;;2.05;0.68;;;10.20;99.90;;;9.66;100.00;96182.03;5034393;28;20040;-40
2023/04/24 01:55:00;;;;;;;3.60;0.63;;;10.20;99.90;;;9.67;100.00;96189.00;5029818;28;20037;-40
2023/04/24 01:57:26;;;;;;;2.15;0.68;;;10.10;99.90;;;9.63;100.00;96187.44;5034504;28;20579;-40
2023/04/24 01:59:52;;;;;;;3.92;0.77;;;10.10;99.90;;;9.61;100.00;96199.84;5031296;28;20103;-40
2023/04/24 02:02:17;;;;;;;3.70;0.63;;;10.00;99.90;;;9.54;100.00;96194.03;5032914;28;20029;-40
2023/04/24 02:04:43;;;;;;;2.75;0.70;;;10.00;99.90;;;9.49;100.00;96189.94;5031121;28;20073;-40
2023/04/24 02:07:09;;;;;;;2.35;0.60;;;10.00;99.90;;;9.49;100.00;96200.47;5035742;28;20591;-39
2023/04/24 02:09:35;;;;;;;0.88;0.60;;;9.90;99.90;;;9.46;100.00;96195.41;5027269;28;20036;-40
2023/04/24 02:12:00;;;;;;;1.60;0.70;;;9.90;99.90;;;9.44;100.00;96199.84;5024880;28;20086;-40
2023/04/24 02:14:26;;;;;;;3.50;0.70;;;9.90;99.90;;;9.42;100.00;96199.97;5029908;28;20116;-40
2023/04/24 02:16:53;;;;;;;2.22;0.80;;;9.80;99.90;;;9.41;100.00;96195.63;5023524;28;20382;-40
2023/04/24 02:19:18;;;;;;;2.03;0.55;;;9.80;99.90;;;9.42;100.00;96188.56;5027869;28;20029;-39
2023/04/24 02:21:44;;;;;;;2.03;0.60;;;9.80;99.90;;;9.47;100.00;96190.03;5023670;28;20040;-40
2023/04/24 02:24:10;;;;;;;0.63;0.50;;;9.90;99.90;;;9.53;100.00;96187.09;5027775;28;20028;-40
2023/04/24 02:26:35;;;;;;;0.77;0.50;;;9.90;99.90;;;9.58;100.00;96189.47;5030505;28;20036;-41
2023/04/24 02:29:01;;;;;;;2.22;0.60;;;10.00;99.90;;;9.66;100.00;96186.44;5026797;28;20032;-41
2023/04/24 02:31:27;;;;;;;0.85;0.50;;;10.10;99.90;;;9.70;100.00;96186.19;5025022;28;20497;-42
2023/04/24 02:33:53;;;;;;;3.17;0.70;;;10.20;99.90;;;9.74;100.00;96200.91;5026626;28;20109;-40
2023/04/24 02:36:18;;;;;;;1.25;0.60;;;10.20;99.90;;;9.78;100.00;96206.00;5029867;28;20032;-41
2023/04/24 02:38:44;;;;;;;0.95;0.40;;;10.30;99.90;;;9.86;100.00;96217.00;5025470;28;20072;-40
2023/04/24 02:41:10;;;;;;;1.35;0.50;;;10.30;99.90;;;9.91;100.00;96222.88;5028903;28;20049;-40
2023/04/24 02:43:35;;;;;;;1.52;0.70;;;10.40;99.90;;;9.93;100.00;96216.56;5033251;28;20067;-41
2023/04/24 02:46:01;;;;;;;1.20;0.50;;;10.40;99.90;;;9.91;100.00;96207.91;5030123;28;20036;-40
2023/04/24 02:48:27;;;;;;;1.10;0.70;;;10.30;99.90;;;9.86;100.00;96204.66;5035786;28;20040;-39
2023/04/24 02:50:53;;;;;;;3.63;0.77;;;10.30;99.90;;;9.80;100.00;96215.53;5024252;28;20096;-40
2023/04/24 02:53:19;;;;;;;2.08;0.75;;;10.20;99.90;;;9.74;100.00;96211.44;5033716;28;20024;-39
2023/04/24 02:55:45;;;;;;;3.55;0.85;;;10.20;99.90;;;9.66;100.00;96194.34;5010559;28;20032;-40
2023/04/24 02:58:12;;;;;;;2.22;0.60;;;10.10;99.90;;;9.60;100.00;96182.38;5029129;28;20099;-39
2023/04/24 03:00:38;;;;;;;1.48;0.77;;;10.00;99.90;;;9.50;100.00;96187.25;5021852;28;20031;-40
2023/04/24 03:03:05;;;;;;;1.35;0.70;;;10.00;99.90;;;9.45;100.00;96191.88;5019896;28;20237;-40
2023/04/24 03:05:31;;;;;;;5.65;0.60;;;9.90;99.90;;;9.39;100.00;96194.00;5029147;28;20029;-39
2023/04/24 03:07:56;;;;;;;2.65;0.70;;;9.80;99.90;;;9.33;100.00;96189.88;5027281;28;20045;-40
2023/04/24 03:10:22;;;;;;;1.35;0.70;;;9.80;99.90;;;9.30;100.00;96180.38;5032468;28;20087;-41
2023/04/24 03:12:48;;;;;;;2.20;0.73;;;9.70;99.90;;;9.24;100.00;96182.47;5023033;28;20437;-40
2023/04/24 03:15:15;;;;;;;0.82;0.50;;;9.70;99.90;;;9.11;100.00;96169.94;5020066;28;20041;-40
2023/04/24 03:17:41;;;;;;;2.72;0.70;;;9.60;99.90;;;9.11;100.00;96180.47;5026254;28;20099;-40
2023/04/24 03:20:08;;;;;;;2.13;0.80;;;9.60;99.90;;;9.03;100.00;96179.16;5030949;28;20033;-40
2023/04/24 03:22:34;;;;;;;1.17;0.60;;;9.50;99.90;;;8.94;100.00;96177.84;5025715;28;20037;-41
2023/04/24 03:25:01;;;;;;;1.27;0.60;;;9.40;99.90;;;8.85;100.00;96176.53;5030032;28;20108;-40
2023/04/24 03:27:26;;;;;;;1.45;0.70;;;9.30;99.90;;;8.82;100.00;96178.44;5027333;28;20119;-40
2023/04/24 03:29:55;;;;;;;1.30;0.63;;;9.30;99.90;;;8.77;100.00;96186.56;5029814;28;20040;-40
2023/04/24 03:32:23;;;;;;;1.33;0.70;;;9.20;99.90;;;8.69;100.00;96162.44;5028202;28;20033;-41
2023/04/24 03:34:50;;;;;;;2.58;0.60;;;9.30;99.90;;;8.82;100.00;96178.44;5030118;28;20029;-40
2023/04/24 03:37:16;;;;;;;1.50;0.77;;;9.30;99.90;;;8.85;100.00;96176.53;5027854;28;20251;-40
2023/04/24 03:39:42;;;;;;;1.38;0.70;;;9.30;99.90;;;8.89;100.00;96169.34;5029202;28;20078;-40
2023/04/24 03:42:08;;;;;;;2.13;0.70;;;9.40;99.90;;;8.92;100.00;96167.41;5032315;28;20097;-39
2023/04/24 03:44:35;;;;;;;2.03;0.90;;;9.40;99.90;;;8.88;100.00;96171.13;5033273;28;20454;-40
2023/04/24 03:47:01;;;;;;;2.15;0.70;;;9.30;99.90;;;8.83;100.00;96157.34;5032823;28;20423;-39
2023/04/24 03:49:27;;;;;;;1.33;0.80;;;9.30;99.90;;;8.67;100.00;96136.22;5031286;28;20481;-39
2023/04/24 03:51:52;;;;;;;0.70;0.60;;;9.20;99.90;;;8.66;100.00;96157.31;5027900;28;20079;-40
2023/04/24 03:54:21;;;;;;;1.48;1.00;;;9.10;99.90;;;8.67;100.00;96156.38;5030878;28;20033;-40
2023/04/24 03:56:46;;;;;;;1.92;0.70;;;9.10;99.90;;;8.56;100.00;96160.41;5030445;28;20035;-40
2023/04/24 03:59:13;;;;;;;2.20;0.70;;;9.10;99.90;;;8.49;100.00;96159.00;5036019;28;20387;-40
2023/04/24 04:01:39;;;;;;;1.52;0.50;;;9.00;99.90;;;8.49;100.00;96166.00;5023518;28;20033;-40
2023/04/24 04:04:06;;;;;;;1.45;0.70;;;8.90;99.90;;;8.44;100.00;96161.00;5025865;28;20013;-40
2023/04/24 04:06:32;;;;;;;3.20;0.90;;;8.90;99.90;;;8.45;100.00;96172.34;5028957;28;20078;-40
2023/04/24 04:08:58;;;;;;;0.80;0.60;;;8.90;99.90;;;8.47;100.00;96173.13;5024304;28;20040;-40
2023/04/24 04:11:24;;;;;;;2.67;0.80;;;8.90;99.90;;;8.58;100.00;96171.69;5024583;28;20052;-41
2023/04/24 04:13:50;;;;;;;1.10;0.70;;;9.10;99.90;;;8.66;100.00;96186.22;5025866;28;20025;-41
2023/04/24 04:16:17;;;;;;;1.38;0.73;;;9.10;99.90;;;8.63;100.00;96171.44;5024505;28;20061;-40
2023/04/24 04:18:43;;;;;;;1.33;0.80;;;9.20;99.90;;;8.80;100.00;96199.56;5029540;28;20048;-40
2023/04/24 04:21:09;;;;;;;2.95;0.98;;;9.30;99.90;;;8.87;100.00;96221.16;5034879;28;20033;-40
2023/04/24 04:23:35;;;;;;;2.08;0.95;;;9.40;99.90;;;8.93;100.00;96232.19;5028099;28;20040;-40
2023/04/24 04:26:01;;;;;;;2.50;1.20;;;9.40;99.90;;;8.96;100.00;96247.81;5023761;28;20818;-39
2023/04/24 04:28:27;;;;;;;3.30;0.90;;;9.50;99.90;;;8.98;100.00;96258.28;5032434;28;20040;-39
2023/04/24 04:30:57;;;;;;;1.95;0.80;;;9.50;99.90;;;8.93;100.00;96255.84;5024747;28;20079;-40
2023/04/24 04:33:24;;;;;;;1.52;0.70;;;9.50;99.90;;;8.72;100.00;96226.22;5027728;28;20029;-39
2023/04/24 04:35:51;;;;;;;2.35;0.80;;;9.40;99.90;;;8.74;100.00;96260.28;5025704;28;20067;-40
2023/04/24 04:38:18;;;;;;;1.17;0.90;;;9.30;99.90;;;8.69;100.00;96257.91;5033141;28;20028;-39
2023/04/24 04:40:45;;;;;;;1.17;0.93;;;9.20;99.90;;;8.63;100.00;96273.09;5029463;28;20385;-39
2023/04/24 04:43:11;;;;;;;1.73;0.80;;;9.20;99.90;;;8.48;100.00;96253.66;5032625;28;20032;-40
2023/04/24 04:45:38;;;;;;;2.83;1.08;;;9.10;99.90;;;8.53;100.00;96268.28;5031557;28;20607;-40
2023/04/24 04:48:07;;;;;;;1.70;0.90;;;9.10;99.90;;;8.50;100.00;96273.66;5032930;28;20505;-41
2023/04/24 04:50:33;;;;;;;1.00;0.77;;;9.00;99.90;;;8.41;100.00;96269.66;5037381;28;20104;-40
2023/04/24 04:52:58;;;;;;;4.68;0.93;;;9.00;99.90;;;8.45;100.00;96273.03;5029075;28;20412;-40
2023/04/24 04:55:25;;;;;;;1.83;1.00;;;9.00;99.90;;;8.41;100.00;96276.69;5028941;28;20037;-40
2023/04/24 04:57:51;;;;;;;1.85;0.90;;;9.00;99.90;;;8.38;100.00;96288.22;5033535;28;20029;-40
2023/04/24 05:00:17;;;;;;;2.65;1.02;;;8.90;99.90;;;8.33;100.00;96284.94;5033544;28;20029;-41
2023/04/24 05:02:43;;;;;;;2.25;0.90;;;8.90;99.90;;;8.29;100.00;96291.25;5028284;28;20025;-40
2023/04/24 05:05:09;;;;;;;2.13;1.00;;;8.80;99.90;;;8.25;100.00;96297.56;5034454;28;20025;-41
2023/04/24 05:07:35;;;;;;;1.08;0.90;;;8.80;99.90;;;8.19;100.00;96296.06;5035059;28;20037;-41
2023/04/24 05:10:01;;;;;;;1.00;0.90;;;8.80;99.90;;;8.31;100.00;96306.94;5032612;28;20029;-40
2023/04/24 05:12:27;;;;;;;1.98;0.90;;;8.80;99.90;;;8.15;100.00;96305.00;5031933;28;20028;-39
2023/04/24 05:14:52;;;;;;;3.72;1.45;;;8.70;99.90;;;8.09;100.00;96310.50;5033538;28;20055;-40
2023/04/24 05:17:18;;;;;;;5.00;1.40;;;8.70;99.90;;;8.08;100.00;96321.97;5034780;28;20480;-40
2023/04/24 05:19:44;;;;;;;2.25;1.02;;;8.60;99.90;;;8.05;100.00;96319.47;5034797;28;20385;-41
2023/04/24 05:22:11;;;;;;;3.15;1.10;;;8.60;99.90;;;8.06;100.00;96321.19;5033349;28;20094;-40
2023/04/24 05:24:37;;;;;;;1.73;1.20;;;8.60;99.90;;;8.02;100.00;96328.34;5033695;28;20106;-40
2023/04/24 05:27:07;;;;;;;1.52;1.10;;;8.50;99.90;;;7.96;100.00;96318.09;5030797;28;20440;-42
2023/04/24 05:29:33;;;;;;;2.13;1.05;;;8.60;99.90;;;8.07;100.00;96333.38;5035113;28;20560;-40
2023/04/24 05:32:00;;;;;;;2.95;1.27;;;8.60;99.90;;;8.07;100.00;96333.38;5027269;28;20052;-40
2023/04/24 05:34:28;;;;;;;1.83;1.10;;;8.70;99.90;;;8.19;100.00;96345.13;5023229;28;20028;-40
2023/04/24 05:36:54;;;;;;;1.20;0.80;;;8.70;99.90;;;8.21;100.00;96354.63;5028425;28;20064;-40
2023/04/24 05:39:20;;;;;;;2.67;1.10;;;8.70;99.90;;;8.25;100.00;96354.50;5031708;28;20035;-39
2023/04/24 05:41:46;;;;;;;5.95;1.38;;;8.80;99.90;;;8.19;100.00;96359.09;5031939;28;20029;-41
2023/04/24 05:44:11;;;;;;;3.00;0.93;;;8.70;99.90;;;8.12;100.00;96360.28;5035114;28;20132;-41
2023/04/24 05:46:37;;;;;;;0.98;0.90;;;8.60;99.90;;;8.10;100.00;96359.50;5033604;28;20044;-41
2023/04/24 05:49:03;;;;;;;2.25;1.20;;;8.60;99.90;;;8.11;100.00;96361.22;5037026;28;20448;-41
2023/04/24 05:51:28;;;;;;;2.45;1.20;;;8.60;99.90;;;8.24;100.00;96366.78;5029670;28;20039;-41
2023/04/24 05:53:54;;;;;;;2.95;1.33;;;8.70;99.90;;;8.38;100.00;96366.16;5028155;28;20037;-42
2023/04/24 05:56:20;;;;;;;2.25;1.40;;;8.80;99.90;;;8.48;100.00;96367.47;5028341;28;20047;-41
2023/04/24 05:58:46;;;;;;;2.78;1.30;;;8.90;99.90;;;8.50;100.00;96378.78;5030753;28;20039;-41
2023/04/24 06:01:14;;;;;;;2.13;1.20;;;9.00;99.90;;;8.49;100.00;96373.59;5031297;28;20749;-41
2023/04/24 06:03:41;;;;;;;1.75;1.10;;;9.00;99.90;;;8.51;100.00;96390.16;5032345;28;20033;-39
2023/04/24 06:06:07;;;;;;;1.20;1.10;;;9.00;99.90;;;8.42;100.00;96375.66;5035134;28;20523;-40
2023/04/24 06:08:34;;;;;;;1.83;1.30;;;9.00;99.90;;;8.43;100.00;96387.00;5032109;28;20032;-39
2023/04/24 06:11:00;;;;;;;3.53;1.48;;;8.90;99.90;;;8.35;100.00;96388.16;5033153;28;20123;-39
2023/04/24 06:13:25;;;;;;;2.63;1.05;;;8.90;99.90;;;8.28;100.00;96389.34;5035401;28;20037;-39
2023/04/24 06:15:52;;;;;;;2.50;1.45;;;8.80;99.90;;;8.25;100.00;96383.38;5022496;28;20029;-41
2023/04/24 06:18:18;;;;;;;1.88;1.30;;;8.80;99.90;;;8.19;100.00;96390.59;5031967;28;20033;-41
2023/04/24 06:20:45;;;;;;;1.90;1.15;;;8.70;99.90;;;8.19;100.00;96385.34;5026643;28;20033;-41
2023/04/24 06:23:11;;;;;;;2.97;1.20;;;8.70;99.90;;;8.22;100.00;96384.38;5034151;28;20484;-41
2023/04/24 06:25:37;;;;;;;3.15;1.60;;;8.70;99.90;;;8.41;100.00;96376.53;5029887;28;20138;-41
2023/04/24 06:28:03;;;;;;;1.42;1.25;;;8.90;99.90;;;8.71;100.00;96387.47;5028225;28;20048;-41
2023/04/24 06:30:29;;;;;;;1.50;1.25;;;9.20;99.90;;;9.09;100.00;96384.00;5022708;28;20077;-41
2023/04/24 06:32:55;;;;;;;2.55;1.27;;;9.60;99.90;;;9.42;100.00;96383.28;5030814;28;20037;-40
2023/04/24 06:35:20;;;;;;;0.98;0.98;;;9.90;99.90;;;9.79;100.00;96374.44;5029142;28;20039;-41
2023/04/24 06:37:46;;;;;;;1.70;1.08;;;10.20;99.90;;;9.99;100.00;96376.06;5026721;28;20041;-41
2023/04/24 06:40:12;;;;;;;1.50;1.30;;;10.40;99.90;;;10.12;100.00;96378.91;5031543;28;20060;-41
2023/04/24 06:42:38;;;;;;;2.42;1.48;;;10.60;99.90;;;10.23;100.00;96378.34;5032624;28;20043;-43
2023/04/24 06:45:05;;;;;;;1.70;1.20;;;10.80;99.90;;;10.35;100.00;96372.47;5034816;28;20052;-40
2023/04/24 06:47:31;;;;;;;3.22;1.80;;;10.90;99.90;;;10.42;100.00;96389.69;5019661;28;20041;-40
2023/04/24 06:49:56;;;;;;;1.55;1.33;;;11.00;99.90;;;10.29;100.00;96378.06;5032340;28;20052;-39
2023/04/24 06:52:22;;;;;;;2.45;1.27;;;11.00;99.90;;;10.48;100.00;96381.47;5032395;28;20055;-39
2023/04/24 06:54:48;;;;;;;1.33;1.23;;;11.10;99.90;;;10.62;100.00;96391.28;5033654;28;20040;-40
2023/04/24 06:57:15;;;;;;;4.13;1.52;;;11.20;99.90;;;10.70;100.00;96389.06;5028592;28;20028;-40
2023/04/24 06:59:41;;;;;;;2.67;1.42;;;11.30;99.90;;;10.86;100.00;96390.91;5027008;28;20624;-40
2023/04/24 07:02:07;;;;;;;2.92;1.60;;;11.40;99.90;;;11.13;100.00;96385.03;5024434;28;20041;-40
2023/04/24 07:04:33;;;;;;;4.30;1.63;;;11.60;99.90;;;11.39;100.00;96383.56;5029009;28;20284;-40
2023/04/24 07:06:58;;;;;;;3.72;1.60;;;12.00;99.90;;;11.53;100.00;96394.19;5026636;28;20159;-40
2023/04/24 07:09:25;;;;;;;4.03;1.50;;;12.10;99.90;;;11.41;100.00;96386.97;5032312;28;20025;-41
2023/04/24 07:11:56;;;;;;;2.55;1.38;;;12.10;99.90;;;11.39;100.00;96388.84;5031882;28;21018;-39
2023/04/24 07:14:22;;;;;;;1.40;1.30;;;12.00;99.90;;;11.24;100.00;96380.00;5024732;28;20112;-41
2023/04/24 07:16:48;;;;;;;2.15;1.38;;;12.00;99.90;;;11.11;100.00;96379.84;5021003;28;20036;-41
2023/04/24 07:19:14;;;;;;;2.88;1.30;;;11.80;99.90;;;11.11;100.00;96395.69;5022653;28;20527;-40
2023/04/24 07:21:40;;;;;;;1.63;1.10;;;11.70;99.90;;;11.12;100.00;96415.00;5030199;28;20032;-41
2023/04/24 07:24:09;;;;;;;5.00;1.55;;;11.70;99.90;;;11.11;100.00;96411.50;5028091;28;20907;-40
2023/04/24 07:26:35;;;;;;;4.28;1.20;;;11.70;99.90;;;11.18;100.00;96412.88;5033584;28;20118;-40
2023/04/24 07:29:01;;;;;;;2.45;1.30;;;11.70;99.90;;;11.15;100.00;96407.75;5033435;28;20581;-40
2023/04/24 07:31:26;;;;;;;3.70;1.25;;;11.70;99.90;;;11.20;100.00;96424.19;5033845;28;20120;-41
2023/04/24 07:33:52;;;;;;;3.08;1.20;;;11.80;99.90;;;11.41;100.00;96413.38;5027100;28;20025;-41
2023/04/24 07:36:18;;;;;;;1.50;1.20;;;12.00;99.90;;;11.56;100.00;96419.59;5032166;28;20378;-40
2023/04/24 07:38:47;;;;;;;2.35;1.17;;;12.20;99.90;;;11.78;90.81;96411.28;5033213;28;20097;-41
2023/04/24 07:41:14;;;;;;;1.77;0.90;;;12.40;99.90;;;12.13;90.92;96422.50;5031548;28;20099;-41
2023/04/24 07:43:40;;;;;;;1.00;0.90;;;12.70;99.90;;;12.51;94.67;96421.16;5034404;28;20055;-41
2023/04/24 07:46:07;;;;;;;3.45;1.02;;;13.00;99.90;;;12.63;85.08;96420.38;5032850;28;20043;-40
2023/04/24 07:48:33;;;;;;;1.77;0.90;;;13.20;99.90;;;12.60;77.88;96432.03;5036101;28;20033;-41
2023/04/24 07:50:58;;;;;;;3.40;1.20;;;13.30;99.90;;;12.35;78.81;96442.38;5031373;28;20459;-41
2023/04/24 07:53:24;;;;;;;1.67;1.05;;;13.10;99.90;;;11.91;75.30;96441.38;5035494;28;20021;-41
2023/04/24 07:55:50;;;;;;;1.73;1.10;;;12.80;99.90;;;11.82;73.01;96436.59;5029898;28;20132;-40
2023/04/24 07:58:16;;;;;;;1.48;0.98;;;12.60;99.90;;;11.94;80.27;96445.66;5033817;28;20203;-40
2023/04/24 08:00:41;;;;;;;2.47;1.20;;;12.60;99.90;;;12.28;73.61;96444.53;5031012;28;20887;-41
2023/04/24 08:03:07;;;;;;;1.27;0.90;;;12.70;99.90;;;12.36;75.64;96444.94;5025772;28;20461;-42
2023/04/24 08:05:33;;;;;;;4.18;1.42;;;12.90;99.90;;;12.24;73.16;96456.22;5029929;28;20043;-40
2023/04/24 08:07:59;;;;;;;3.58;1.02;;;12.90;99.90;;;12.19;70.06;96450.34;5027877;28;20099;-41
2023/04/24 08:10:25;;;;;;;1.05;0.82;;;12.80;99.90;;;11.92;70.26;96473.94;5030637;28;20041;-40
2023/04/24 08:12:51;;;;;;;2.80;1.00;;;12.60;99.90;;;11.82;67.66;96470.94;5029310;28;20107;-42
2023/04/24 08:15:17;;;;;;;2.72;1.25;;;12.40;99.90;;;11.72;73.30;96451.25;5033641;28;20044;-40
2023/04/24 08:17:43;;;;;;;3.05;1.30;;;12.30;99.90;;;11.48;69.71;96456.97;5032855;28;20094;-40
2023/04/24 08:20:13;;;;;;;3.00;1.25;;;12.20;99.90;;;11.50;75.46;96464.81;5034533;28;20385;-40
2023/04/24 08:22:40;;;;;;;1.30;0.90;;;12.10;99.90;;;11.43;68.71;96480.13;5036834;28;20296;-41
2023/04/24 08:25:06;;;;;;;2.33;0.90;;;12.00;99.90;;;11.35;71.67;96483.19;5034375;28;20654;-40
2023/04/24 08:27:32;;;;;;;4.78;1.10;;;12.00;99.90;;;11.35;70.38;96487.63;5039488;28;20416;-40
2023/04/24 08:30:01;;;;;;;1.83;1.00;;;11.90;99.90;;;11.44;73.94;96466.00;5021778;28;20033;-40
2023/04/24 08:32:29;;;;;;;1.38;0.93;;;12.00;99.90;;;11.47;75.34;96473.78;5031601;28;20024;-41
2023/04/24 08:34:59;;;;;;;1.35;1.08;;;12.00;99.90;;;11.46;73.58;96495.81;5034373;28;20040;-40
2023/04/24 08:37:26;;;;;;;2.08;1.38;;;12.10;99.90;;;11.40;71.31;96478.53;5036448;28;20033;-40
2023/04/24 08:39:53;;;;;;;2.25;1.00;;;12.00;99.90;;;11.39;73.73;96471.53;5032118;28;20029;-40
2023/04/24 08:42:20;;;;;;;2.08;1.10;;;12.00;99.90;;;11.57;73.12;96484.66;5035451;28;20120;-40
2023/04/24 08:44:48;;;;;;;2.47;1.00;;;12.10;99.90;;;11.70;70.61;96498.03;5037085;28;20485;-40
2023/04/24 08:47:15;;;;;;;3.05;1.20;;;12.30;99.90;;;11.85;70.87;96482.16;5039008;28;20037;-40
2023/04/24 08:49:42;;;;;;;2.50;1.10;;;12.50;99.90;;;11.83;73.73;96489.34;5040170;28;20484;-40
2023/04/24 08:52:08;;;;;;;1.33;0.93;;;12.50;99.90;;;11.81;72.66;96493.00;5039586;28;20053;-40
2023/04/24 08:54:35;;;;;;;4.63;0.90;;;12.50;99.90;;;11.62;64.21;96504.59;5033774;28;20036;-41
2023/04/24 08:57:03;;;;;;;1.05;0.95;;;12.50;99.90;;;11.64;71.50;96510.63;5034090;28;20974;-39
2023/04/24 08:59:30;;;;;;;2.78;1.10;;;12.40;99.90;;;11.50;77.02;96499.13;5037666;28;20041;-40
2023/04/24 09:01:57;;;;;;;1.88;1.17;;;12.20;99.90;;;11.49;71.23;96508.00;5034782;28;20043;-40
2023/04/24 09:04:24;;;;;;;1.50;1.00;;;12.10;99.90;;;11.36;73.34;96505.16;5041971;28;20075;-41
2023/04/24 09:06:57;;;;;;;3.97;1.00;;;12.10;99.90;;;11.32;78.33;96514.19;5037195;28;20037;-40
2023/04/24 09:09:24;;;;;;;1.40;0.90;;;12.10;99.90;;;11.02;73.31;96523.66;5039716;28;20157;-39
2023/04/24 09:11:53;;;;;;;2.13;1.00;;;11.90;99.90;;;10.87;76.33;96524.47;5035833;28;20120;-40
2023/04/24 09:14:19;;;;;;;1.95;0.95;;;11.70;99.90;;;10.76;82.73;96529.44;5036458;28;20549;-40
2023/04/24 09:16:46;;;;;;;1.98;1.27;;;11.40;99.90;;;10.60;85.46;96540.75;5028802;28;20060;-40
2023/04/24 09:19:12;;;;;;;3.78;1.20;;;11.30;99.90;;;10.39;87.46;96542.72;5033637;28;20764;-40
2023/04/24 09:21:38;;;;;;;2.15;1.00;;;11.10;99.90;;;10.26;99.12;96545.06;5035050;28;20467;-39
2023/04/24 09:24:07;;;;;;;1.23;1.00;;;11.00;99.90;;;10.01;100.00;96547.19;5031987;28;20032;-40
2023/04/24 09:26:36;;;;;;;5.47;1.08;;;10.70;99.90;;;9.93;100.00;96550.19;5031234;28;20032;-40
2023/04/24 09:29:03;;;;;;;2.17;1.10;;;10.60;99.90;;;9.90;100.00;96550.34;5030657;28;20032;-41
2023/04/24 09:31:30;;;;;;;5.10;1.50;;;10.50;99.90;;;9.85;100.00;96539.16;5035592;28;20200;-41
2023/04/24 09:34:03;;;;;;;2.05;1.30;;;10.60;99.90;;;10.01;100.00;96549.81;5037279;28;20037;-40
2023/04/24 09:36:38;;;;;;;1.92;1.20;;;10.70;99.90;;;10.03;100.00;96547.97;5037198;28;20362;-40
2023/04/24 09:39:15;;;;;;;2.22;1.08;;;10.80;99.90;;;10.14;100.00;96550.94;5032946;28;20484;-39
2023/04/24 09:41:52;;;;;;;2.20;1.35;;;10.80;99.90;;;10.18;100.00;96549.03;5029942;28;20461;-41
2023/04/24 09:44:23;;;;;;;1.65;0.95;;;10.90;99.90;;;10.55;100.00;96556.00;5036825;28;20523;-40
2023/04/24 09:46:55;;;;;;;1.67;1.00;;;11.20;99.90;;;10.94;97.75;96546.94;5037171;28;20119;-40
2023/04/24 09:49:29;;;;;;;;;;;11.60;99.90;;;11.11;85.89;96564.56;5038476;28;20044;-41
2023/04/24 09:52:09;;;;;;;2.47;1.20;;;11.80;99.90;;;11.11;88.21;96561.03;5034743;28;19928;-39
2023/04/24 09:54:54;;;;;;;2.47;1.10;;;11.90;99.90;;;11.26;80.71;96576.94;5034197;28;20040;-39
2023/04/24 09:57:19;;;;;;;1.45;1.00;;;12.00;99.90;;;11.32;74.02;96572.25;5040971;28;20037;-40
2023/04/24 09:59:46;;;;;;;3.90;0.80;;;12.00;99.90;;;11.43;77.82;96576.03;5030921;28;20040;-40
2023/04/24 10:02:19;;;;;;;2.33;1.08;;;12.00;99.90;;;11.40;75.52;96580.63;5030389;28;20090;-41
2023/04/24 10:04:56;;;;;;;2.30;1.20;;;12.10;99.90;;;11.68;73.40;96579.97;5032668;28;20059;-41
2023/04/24 10:07:22;;;;;;;3.05;1.10;;;12.30;99.90;;;11.88;70.89;96591.25;5036683;28;20504;-41
2023/04/24 10:09:47;;;;;;;2.63;1.05;;;12.50;99.90;;;11.82;70.13;96582.72;5035139;28;20532;-39
2023/04/24 10:12:15;;;;;;;1.45;0.82;;;12.40;99.90;;;11.54;72.02;96579.88;5038548;28;20032;-40
2023/04/24 10:14:41;;;;;;;1.48;0.90;;;12.20;99.90;;;11.36;66.45;96581.72;5039616;28;20114;-40
2023/04/24 10:17:07;;;;;;;2.03;0.75;;;12.00;99.90;;;11.28;69.17;96572.41;5028940;28;20555;-41